sensor_id;sensor_type;location;lat;lon;timestamp;P1;durP1;ratioP1;P2;durP2;ratioP2
49366;SDS011;35245;52.026;8.540;2023-04-02T00:01:15;3.83;;;2.35;;
49366;SDS011;35245;52.026;8.540;2023-04-02T00:04:01;3.22;;;2.40;;
49366;SDS011;35245;52.026;8.540;2023-04-02T00:06:33;5.10;;;3.00;;
49366;SDS011;35245;52.026;8.540;2023-04-02T00:09:15;4.20;;;3.35;;
49366;SDS011;35245;52.026;8.540;2023-04-02T00:11:56;4.65;;;3.03;;
49366;SDS011;35245;52.026;8.540;2023-04-02T00:14:25;4.05;;;2.90;;
49366;SDS011;35245;52.026;8.540;2023-04-02T00:16:56;4.68;;;2.92;;
49366;SDS011;35245;52.026;8.540;2023-04-02T00:19:25;4.18;;;2.60;;
49366;SDS011;35245;52.026;8.540;2023-04-02T00:21:56;3.20;;;2.35;;
49366;SDS011;35245;52.026;8.540;2023-04-02T00:24:23;5.03;;;2.35;;
49366;SDS011;35245;52.026;8.540;2023-04-02T00:26:50;2.80;;;2.55;;
49366;SDS011;35245;52.026;8.540;2023-04-02T00:29:18;4.88;;;2.42;;
49366;SDS011;35245;52.026;8.540;2023-04-02T00:31:46;5.60;;;2.45;;
49366;SDS011;35245;52.026;8.540;2023-04-02T00:34:16;5.65;;;2.85;;
49366;SDS011;35245;52.026;8.540;2023-04-02T00:36:45;4.25;;;2.85;;
49366;SDS011;35245;52.026;8.540;2023-04-02T00:39:17;6.30;;;3.10;;
49366;SDS011;35245;52.026;8.540;2023-04-02T00:41:45;5.28;;;3.25;;
49366;SDS011;35245;52.026;8.540;2023-04-02T00:44:12;4.07;;;2.63;;
49366;SDS011;35245;52.026;8.540;2023-04-02T00:46:41;3.17;;;2.60;;
49366;SDS011;35245;52.026;8.540;2023-04-02T00:49:16;3.00;;;2.50;;
49366;SDS011;35245;52.026;8.540;2023-04-02T00:51:47;2.38;;;2.15;;
49366;SDS011;35245;52.026;8.540;2023-04-02T00:54:18;3.85;;;2.45;;
49366;SDS011;35245;52.026;8.540;2023-04-02T00:56:47;3.42;;;2.42;;
49366;SDS011;35245;52.026;8.540;2023-04-02T00:59:17;3.33;;;2.38;;
49366;SDS011;35245;52.026;8.540;2023-04-02T01:01:49;3.95;;;2.08;;
49366;SDS011;35245;52.026;8.540;2023-04-02T01:04:26;3.55;;;2.38;;
49366;SDS011;35245;52.026;8.540;2023-04-02T01:06:56;2.38;;;2.10;;
49366;SDS011;35245;52.026;8.540;2023-04-02T01:09:29;5.93;;;2.65;;
49366;SDS011;35245;52.026;8.540;2023-04-02T01:12:10;2.92;;;2.22;;
49366;SDS011;35245;52.026;8.540;2023-04-02T01:14:57;4.85;;;2.58;;
49366;SDS011;35245;52.026;8.540;2023-04-02T01:17:32;3.75;;;2.38;;
49366;SDS011;35245;52.026;8.540;2023-04-02T01:23:02;4.63;;;2.90;;
49366;SDS011;35245;52.026;8.540;2023-04-02T01:25:33;6.13;;;3.30;;
49366;SDS011;35245;52.026;8.540;2023-04-02T01:28:05;5.88;;;3.58;;
49366;SDS011;35245;52.026;8.540;2023-04-02T01:30:37;4.57;;;3.55;;
49366;SDS011;35245;52.026;8.540;2023-04-02T01:33:05;6.40;;;3.90;;
49366;SDS011;35245;52.026;8.540;2023-04-02T01:35:32;6.07;;;3.42;;
49366;SDS011;35245;52.026;8.540;2023-04-02T01:38:03;5.43;;;3.30;;
49366;SDS011;35245;52.026;8.540;2023-04-02T01:40:35;4.60;;;3.00;;
49366;SDS011;35245;52.026;8.540;2023-04-02T01:43:08;4.82;;;3.70;;
49366;SDS011;35245;52.026;8.540;2023-04-02T01:45:41;5.30;;;3.88;;
49366;SDS011;35245;52.026;8.540;2023-04-02T01:48:10;6.63;;;3.58;;
49366;SDS011;35245;52.026;8.540;2023-04-02T01:50:40;7.80;;;4.20;;
49366;SDS011;35245;52.026;8.540;2023-04-02T01:53:10;8.57;;;4.20;;
49366;SDS011;35245;52.026;8.540;2023-04-02T01:55:39;9.27;;;5.07;;
49366;SDS011;35245;52.026;8.540;2023-04-02T01:58:08;7.35;;;4.53;;
49366;SDS011;35245;52.026;8.540;2023-04-02T02:00:35;7.78;;;4.80;;
49366;SDS011;35245;52.026;8.540;2023-04-02T02:03:09;10.63;;;5.25;;
49366;SDS011;35245;52.026;8.540;2023-04-02T02:05:36;11.60;;;4.50;;
49366;SDS011;35245;52.026;8.540;2023-04-02T02:08:15;7.80;;;4.90;;
49366;SDS011;35245;52.026;8.540;2023-04-02T02:10:48;10.55;;;4.47;;
49366;SDS011;35245;52.026;8.540;2023-04-02T02:13:15;10.30;;;5.18;;
49366;SDS011;35245;52.026;8.540;2023-04-02T02:15:43;11.55;;;5.03;;
49366;SDS011;35245;52.026;8.540;2023-04-02T02:18:11;13.68;;;4.82;;
49366;SDS011;35245;52.026;8.540;2023-04-02T02:20:39;11.68;;;5.18;;
49366;SDS011;35245;52.026;8.540;2023-04-02T02:23:08;13.05;;;5.63;;
49366;SDS011;35245;52.026;8.540;2023-04-02T02:25:36;11.15;;;5.05;;
49366;SDS011;35245;52.026;8.540;2023-04-02T02:28:04;12.73;;;5.75;;
49366;SDS011;35245;52.026;8.540;2023-04-02T02:30:33;14.30;;;5.80;;
49366;SDS011;35245;52.026;8.540;2023-04-02T02:33:04;10.77;;;5.20;;
49366;SDS011;35245;52.026;8.540;2023-04-02T02:35:37;11.13;;;5.53;;
49366;SDS011;35245;52.026;8.540;2023-04-02T02:38:22;11.15;;;5.40;;
49366;SDS011;35245;52.026;8.540;2023-04-02T02:40:56;13.00;;;5.75;;
49366;SDS011;35245;52.026;8.540;2023-04-02T02:43:25;10.20;;;5.03;;
49366;SDS011;35245;52.026;8.540;2023-04-02T02:45:52;11.85;;;5.35;;
49366;SDS011;35245;52.026;8.540;2023-04-02T02:48:22;11.63;;;5.97;;
49366;SDS011;35245;52.026;8.540;2023-04-02T02:50:52;10.35;;;5.03;;
49366;SDS011;35245;52.026;8.540;2023-04-02T02:53:20;13.32;;;5.95;;
49366;SDS011;35245;52.026;8.540;2023-04-02T02:55:50;12.20;;;5.40;;
49366;SDS011;35245;52.026;8.540;2023-04-02T02:58:19;9.48;;;5.78;;
49366;SDS011;35245;52.026;8.540;2023-04-02T03:00:51;10.43;;;5.47;;
49366;SDS011;35245;52.026;8.540;2023-04-02T03:03:19;9.43;;;4.72;;
49366;SDS011;35245;52.026;8.540;2023-04-02T03:05:49;14.60;;;5.32;;
49366;SDS011;35245;52.026;8.540;2023-04-02T03:08:22;16.58;;;4.95;;
49366;SDS011;35245;52.026;8.540;2023-04-02T03:10:53;13.40;;;5.30;;
49366;SDS011;35245;52.026;8.540;2023-04-02T03:13:22;9.88;;;4.60;;
49366;SDS011;35245;52.026;8.540;2023-04-02T03:15:53;10.73;;;4.15;;
49366;SDS011;35245;52.026;8.540;2023-04-02T03:18:25;9.07;;;4.32;;
49366;SDS011;35245;52.026;8.540;2023-04-02T03:21:00;13.77;;;4.63;;
49366;SDS011;35245;52.026;8.540;2023-04-02T03:23:33;8.52;;;4.47;;
49366;SDS011;35245;52.026;8.540;2023-04-02T03:26:03;10.45;;;4.72;;
49366;SDS011;35245;52.026;8.540;2023-04-02T03:28:33;8.85;;;4.30;;
49366;SDS011;35245;52.026;8.540;2023-04-02T03:31:03;10.60;;;4.07;;
49366;SDS011;35245;52.026;8.540;2023-04-02T03:33:32;8.45;;;4.00;;
49366;SDS011;35245;52.026;8.540;2023-04-02T03:36:03;9.52;;;3.80;;
49366;SDS011;35245;52.026;8.540;2023-04-02T03:38:40;9.00;;;4.50;;
49366;SDS011;35245;52.026;8.540;2023-04-02T03:41:09;8.48;;;3.90;;
49366;SDS011;35245;52.026;8.540;2023-04-02T03:43:42;7.15;;;3.78;;
49366;SDS011;35245;52.026;8.540;2023-04-02T03:46:15;7.93;;;4.35;;
49366;SDS011;35245;52.026;8.540;2023-04-02T03:48:49;7.65;;;3.78;;
49366;SDS011;35245;52.026;8.540;2023-04-02T03:51:20;11.68;;;4.63;;
49366;SDS011;35245;52.026;8.540;2023-04-02T03:53:50;9.48;;;3.85;;
49366;SDS011;35245;52.026;8.540;2023-04-02T03:56:20;9.52;;;3.78;;
49366;SDS011;35245;52.026;8.540;2023-04-02T03:58:52;9.05;;;3.90;;
49366;SDS011;35245;52.026;8.540;2023-04-02T04:01:23;8.68;;;4.18;;
49366;SDS011;35245;52.026;8.540;2023-04-02T04:03:53;6.83;;;3.30;;
49366;SDS011;35245;52.026;8.540;2023-04-02T04:06:23;8.90;;;3.72;;
49366;SDS011;35245;52.026;8.540;2023-04-02T04:08:52;6.60;;;3.05;;
49366;SDS011;35245;52.026;8.540;2023-04-02T04:11:21;8.23;;;3.30;;
49366;SDS011;35245;52.026;8.540;2023-04-02T04:13:53;6.85;;;3.30;;
49366;SDS011;35245;52.026;8.540;2023-04-02T04:16:23;8.32;;;3.25;;
49366;SDS011;35245;52.026;8.540;2023-04-02T04:18:54;12.32;;;3.33;;
49366;SDS011;35245;52.026;8.540;2023-04-02T04:21:28;7.13;;;2.92;;
49366;SDS011;35245;52.026;8.540;2023-04-02T04:24:01;7.40;;;3.17;;
49366;SDS011;35245;52.026;8.540;2023-04-02T04:26:33;6.50;;;2.90;;
49366;SDS011;35245;52.026;8.540;2023-04-02T04:29:06;7.95;;;3.90;;
49366;SDS011;35245;52.026;8.540;2023-04-02T04:31:40;8.63;;;2.47;;
49366;SDS011;35245;52.026;8.540;2023-04-02T04:34:12;5.13;;;2.38;;
49366;SDS011;35245;52.026;8.540;2023-04-02T04:36:43;5.18;;;2.72;;
49366;SDS011;35245;52.026;8.540;2023-04-02T04:39:13;7.07;;;2.30;;
49366;SDS011;35245;52.026;8.540;2023-04-02T04:41:43;7.47;;;2.72;;
49366;SDS011;35245;52.026;8.540;2023-04-02T04:44:13;8.50;;;3.30;;
49366;SDS011;35245;52.026;8.540;2023-04-02T04:46:43;8.07;;;3.00;;
49366;SDS011;35245;52.026;8.540;2023-04-02T04:49:13;8.40;;;2.65;;
49366;SDS011;35245;52.026;8.540;2023-04-02T04:51:45;5.72;;;2.42;;
49366;SDS011;35245;52.026;8.540;2023-04-02T04:54:14;9.10;;;3.10;;
49366;SDS011;35245;52.026;8.540;2023-04-02T04:56:43;7.60;;;2.40;;
49366;SDS011;35245;52.026;8.540;2023-04-02T04:59:13;6.32;;;2.35;;
49366;SDS011;35245;52.026;8.540;2023-04-02T05:01:44;6.28;;;2.30;;
49366;SDS011;35245;52.026;8.540;2023-04-02T05:04:14;6.63;;;2.53;;
49366;SDS011;35245;52.026;8.540;2023-04-02T05:06:48;7.05;;;2.72;;
49366;SDS011;35245;52.026;8.540;2023-04-02T05:09:19;8.07;;;2.97;;
49366;SDS011;35245;52.026;8.540;2023-04-02T05:11:52;7.43;;;2.97;;
49366;SDS011;35245;52.026;8.540;2023-04-02T05:14:24;5.45;;;2.30;;
49366;SDS011;35245;52.026;8.540;2023-04-02T05:16:56;7.63;;;2.63;;
49366;SDS011;35245;52.026;8.540;2023-04-02T05:19:27;9.93;;;2.78;;
49366;SDS011;35245;52.026;8.540;2023-04-02T05:22:01;11.55;;;3.53;;
49366;SDS011;35245;52.026;8.540;2023-04-02T05:24:36;5.65;;;2.80;;
49366;SDS011;35245;52.026;8.540;2023-04-02T05:27:12;5.70;;;2.45;;
49366;SDS011;35245;52.026;8.540;2023-04-02T05:29:45;4.72;;;2.30;;
49366;SDS011;35245;52.026;8.540;2023-04-02T05:32:15;5.88;;;2.75;;
49366;SDS011;35245;52.026;8.540;2023-04-02T05:34:45;8.50;;;2.90;;
49366;SDS011;35245;52.026;8.540;2023-04-02T05:37:16;6.47;;;2.65;;
49366;SDS011;35245;52.026;8.540;2023-04-02T05:39:45;4.95;;;2.10;;
49366;SDS011;35245;52.026;8.540;2023-04-02T05:42:19;6.90;;;2.75;;
49366;SDS011;35245;52.026;8.540;2023-04-02T05:44:51;6.22;;;2.55;;
49366;SDS011;35245;52.026;8.540;2023-04-02T05:47:26;5.55;;;2.45;;
49366;SDS011;35245;52.026;8.540;2023-04-02T05:50:04;7.43;;;2.72;;
49366;SDS011;35245;52.026;8.540;2023-04-02T05:52:38;7.18;;;2.88;;
49366;SDS011;35245;52.026;8.540;2023-04-02T05:55:21;13.13;;;2.90;;
49366;SDS011;35245;52.026;8.540;2023-04-02T05:57:55;11.27;;;2.75;;
49366;SDS011;35245;52.026;8.540;2023-04-02T06:00:31;9.68;;;2.97;;
49366;SDS011;35245;52.026;8.540;2023-04-02T06:03:27;4.72;;;2.15;;
49366;SDS011;35245;52.026;8.540;2023-04-02T06:06:00;8.18;;;2.53;;
49366;SDS011;35245;52.026;8.540;2023-04-02T06:08:32;4.97;;;2.10;;
49366;SDS011;35245;52.026;8.540;2023-04-02T06:11:03;5.13;;;2.83;;
49366;SDS011;35245;52.026;8.540;2023-04-02T06:13:33;5.82;;;2.45;;
49366;SDS011;35245;52.026;8.540;2023-04-02T06:16:01;5.20;;;2.40;;
49366;SDS011;35245;52.026;8.540;2023-04-02T06:18:28;6.60;;;2.22;;
49366;SDS011;35245;52.026;8.540;2023-04-02T06:20:56;6.05;;;2.03;;
49366;SDS011;35245;52.026;8.540;2023-04-02T06:23:24;7.72;;;2.75;;
49366;SDS011;35245;52.026;8.540;2023-04-02T06:25:58;4.40;;;2.28;;
49366;SDS011;35245;52.026;8.540;2023-04-02T06:28:29;4.68;;;2.40;;
49366;SDS011;35245;52.026;8.540;2023-04-02T06:31:00;6.75;;;2.13;;
49366;SDS011;35245;52.026;8.540;2023-04-02T06:33:31;4.43;;;2.42;;
49366;SDS011;35245;52.026;8.540;2023-04-02T06:35:58;9.80;;;2.60;;
49366;SDS011;35245;52.026;8.540;2023-04-02T06:38:26;6.65;;;1.77;;
49366;SDS011;35245;52.026;8.540;2023-04-02T06:40:55;8.07;;;2.50;;
49366;SDS011;35245;52.026;8.540;2023-04-02T06:43:25;6.97;;;2.53;;
49366;SDS011;35245;52.026;8.540;2023-04-02T06:45:57;5.63;;;2.45;;
49366;SDS011;35245;52.026;8.540;2023-04-02T06:48:25;5.40;;;2.33;;
49366;SDS011;35245;52.026;8.540;2023-04-02T06:50:54;8.18;;;2.47;;
49366;SDS011;35245;52.026;8.540;2023-04-02T06:53:23;4.57;;;2.30;;
49366;SDS011;35245;52.026;8.540;2023-04-02T06:55:53;6.32;;;2.58;;
49366;SDS011;35245;52.026;8.540;2023-04-02T06:58:26;4.90;;;2.00;;
49366;SDS011;35245;52.026;8.540;2023-04-02T07:00:53;7.28;;;2.33;;
49366;SDS011;35245;52.026;8.540;2023-04-02T07:03:20;4.38;;;2.05;;
49366;SDS011;35245;52.026;8.540;2023-04-02T07:05:48;5.57;;;2.17;;
49366;SDS011;35245;52.026;8.540;2023-04-02T07:08:15;5.40;;;2.22;;
49366;SDS011;35245;52.026;8.540;2023-04-02T07:10:42;5.85;;;2.10;;
49366;SDS011;35245;52.026;8.540;2023-04-02T07:13:12;6.45;;;2.63;;
49366;SDS011;35245;52.026;8.540;2023-04-02T07:15:40;7.85;;;2.25;;
49366;SDS011;35245;52.026;8.540;2023-04-02T07:18:07;6.88;;;2.10;;
49366;SDS011;35245;52.026;8.540;2023-04-02T07:20:39;4.57;;;1.90;;
49366;SDS011;35245;52.026;8.540;2023-04-02T07:23:06;4.18;;;1.90;;
49366;SDS011;35245;52.026;8.540;2023-04-02T07:25:33;4.13;;;2.13;;
49366;SDS011;35245;52.026;8.540;2023-04-02T07:28:00;6.65;;;2.08;;
49366;SDS011;35245;52.026;8.540;2023-04-02T07:30:28;7.40;;;2.08;;
49366;SDS011;35245;52.026;8.540;2023-04-02T07:32:55;6.68;;;1.88;;
49366;SDS011;35245;52.026;8.540;2023-04-02T07:35:22;3.88;;;2.10;;
49366;SDS011;35245;52.026;8.540;2023-04-02T07:37:49;6.15;;;2.20;;
49366;SDS011;35245;52.026;8.540;2023-04-02T07:40:18;7.72;;;3.00;;
49366;SDS011;35245;52.026;8.540;2023-04-02T07:42:46;5.13;;;2.05;;
49366;SDS011;35245;52.026;8.540;2023-04-02T07:45:13;8.25;;;2.83;;
49366;SDS011;35245;52.026;8.540;2023-04-02T07:47:42;4.97;;;2.30;;
49366;SDS011;35245;52.026;8.540;2023-04-02T07:50:09;6.43;;;2.00;;
49366;SDS011;35245;52.026;8.540;2023-04-02T07:52:38;6.05;;;1.90;;
49366;SDS011;35245;52.026;8.540;2023-04-02T07:55:06;5.35;;;1.92;;
49366;SDS011;35245;52.026;8.540;2023-04-02T07:57:36;3.22;;;1.85;;
49366;SDS011;35245;52.026;8.540;2023-04-02T08:00:06;6.53;;;1.80;;
49366;SDS011;35245;52.026;8.540;2023-04-02T08:02:35;2.92;;;1.50;;
49366;SDS011;35245;52.026;8.540;2023-04-02T08:05:04;6.82;;;2.10;;
49366;SDS011;35245;52.026;8.540;2023-04-02T08:07:31;4.05;;;1.83;;
49366;SDS011;35245;52.026;8.540;2023-04-02T08:09:58;4.25;;;2.17;;
49366;SDS011;35245;52.026;8.540;2023-04-02T08:12:25;3.70;;;1.55;;
49366;SDS011;35245;52.026;8.540;2023-04-02T08:14:52;3.33;;;1.52;;
49366;SDS011;35245;52.026;8.540;2023-04-02T08:17:19;2.67;;;1.40;;
49366;SDS011;35245;52.026;8.540;2023-04-02T08:19:46;4.20;;;1.55;;
49366;SDS011;35245;52.026;8.540;2023-04-02T08:22:15;2.97;;;1.48;;
49366;SDS011;35245;52.026;8.540;2023-04-02T08:24:42;5.15;;;1.73;;
49366;SDS011;35245;52.026;8.540;2023-04-02T08:27:10;4.45;;;1.80;;
49366;SDS011;35245;52.026;8.540;2023-04-02T08:29:38;5.47;;;1.90;;
49366;SDS011;35245;52.026;8.540;2023-04-02T08:32:05;4.38;;;1.35;;
49366;SDS011;35245;52.026;8.540;2023-04-02T08:34:32;4.55;;;1.75;;
49366;SDS011;35245;52.026;8.540;2023-04-02T08:36:59;4.15;;;1.45;;
49366;SDS011;35245;52.026;8.540;2023-04-02T08:39:27;2.33;;;1.30;;
49366;SDS011;35245;52.026;8.540;2023-04-02T08:41:57;6.38;;;1.30;;
49366;SDS011;35245;52.026;8.540;2023-04-02T08:44:39;3.78;;;1.42;;
49366;SDS011;35245;52.026;8.540;2023-04-02T08:47:09;3.40;;;1.33;;
49366;SDS011;35245;52.026;8.540;2023-04-02T08:49:39;3.00;;;1.30;;
49366;SDS011;35245;52.026;8.540;2023-04-02T08:52:12;5.32;;;2.42;;
49366;SDS011;35245;52.026;8.540;2023-04-02T08:54:46;3.78;;;1.60;;
49366;SDS011;35245;52.026;8.540;2023-04-02T08:57:14;3.53;;;1.33;;
49366;SDS011;35245;52.026;8.540;2023-04-02T08:59:46;4.28;;;2.10;;
49366;SDS011;35245;52.026;8.540;2023-04-02T09:02:22;3.17;;;1.50;;
49366;SDS011;35245;52.026;8.540;2023-04-02T09:04:53;5.57;;;2.30;;
49366;SDS011;35245;52.026;8.540;2023-04-02T09:07:21;6.40;;;1.90;;
49366;SDS011;35245;52.026;8.540;2023-04-02T09:09:49;3.70;;;1.30;;
49366;SDS011;35245;52.026;8.540;2023-04-02T09:12:17;4.53;;;1.63;;
49366;SDS011;35245;52.026;8.540;2023-04-02T09:14:49;4.22;;;1.60;;
49366;SDS011;35245;52.026;8.540;2023-04-02T09:17:24;3.90;;;2.00;;
49366;SDS011;35245;52.026;8.540;2023-04-02T09:19:53;4.55;;;1.30;;
49366;SDS011;35245;52.026;8.540;2023-04-02T09:22:22;5.13;;;1.63;;
49366;SDS011;35245;52.026;8.540;2023-04-02T09:24:51;3.20;;;1.48;;
49366;SDS011;35245;52.026;8.540;2023-04-02T09:27:19;5.93;;;3.17;;
49366;SDS011;35245;52.026;8.540;2023-04-02T09:29:48;5.30;;;1.92;;
49366;SDS011;35245;52.026;8.540;2023-04-02T09:32:31;3.60;;;1.77;;
49366;SDS011;35245;52.026;8.540;2023-04-02T09:35:05;4.57;;;1.50;;
49366;SDS011;35245;52.026;8.540;2023-04-02T09:40:19;5.22;;;1.77;;
49366;SDS011;35245;52.026;8.540;2023-04-02T09:43:00;5.10;;;1.73;;
49366;SDS011;35245;52.026;8.540;2023-04-02T09:45:28;2.97;;;1.45;;
49366;SDS011;35245;52.026;8.540;2023-04-02T09:47:55;1.63;;;1.10;;
49366;SDS011;35245;52.026;8.540;2023-04-02T09:50:26;3.35;;;1.67;;
49366;SDS011;35245;52.026;8.540;2023-04-02T09:52:56;5.35;;;1.67;;
49366;SDS011;35245;52.026;8.540;2023-04-02T09:55:24;3.03;;;1.30;;
49366;SDS011;35245;52.026;8.540;2023-04-02T09:58:06;2.45;;;1.30;;
49366;SDS011;35245;52.026;8.540;2023-04-02T10:00:37;4.30;;;1.58;;
49366;SDS011;35245;52.026;8.540;2023-04-02T10:03:05;2.28;;;1.13;;
49366;SDS011;35245;52.026;8.540;2023-04-02T10:05:42;5.07;;;1.75;;
49366;SDS011;35245;52.026;8.540;2023-04-02T10:08:15;3.85;;;1.02;;
49366;SDS011;35245;52.026;8.540;2023-04-02T10:10:46;3.83;;;1.55;;
49366;SDS011;35245;52.026;8.540;2023-04-02T10:13:16;5.55;;;1.40;;
49366;SDS011;35245;52.026;8.540;2023-04-02T10:15:50;3.67;;;1.42;;
49366;SDS011;35245;52.026;8.540;2023-04-02T10:18:20;6.72;;;1.42;;
49366;SDS011;35245;52.026;8.540;2023-04-02T10:20:52;7.18;;;1.58;;
49366;SDS011;35245;52.026;8.540;2023-04-02T10:23:21;3.40;;;1.50;;
49366;SDS011;35245;52.026;8.540;2023-04-02T10:25:53;4.57;;;1.25;;
49366;SDS011;35245;52.026;8.540;2023-04-02T10:28:28;5.63;;;1.55;;
49366;SDS011;35245;52.026;8.540;2023-04-02T10:31:05;2.90;;;1.33;;
49366;SDS011;35245;52.026;8.540;2023-04-02T10:33:41;5.80;;;1.55;;
49366;SDS011;35245;52.026;8.540;2023-04-02T10:36:10;4.70;;;1.92;;
49366;SDS011;35245;52.026;8.540;2023-04-02T10:38:47;3.75;;;1.10;;
49366;SDS011;35245;52.026;8.540;2023-04-02T10:41:24;3.88;;;1.60;;
49366;SDS011;35245;52.026;8.540;2023-04-02T10:43:58;4.15;;;1.95;;
49366;SDS011;35245;52.026;8.540;2023-04-02T10:46:43;4.90;;;1.70;;
49366;SDS011;35245;52.026;8.540;2023-04-02T10:49:17;2.67;;;1.48;;
49366;SDS011;35245;52.026;8.540;2023-04-02T10:51:49;3.80;;;1.17;;
49366;SDS011;35245;52.026;8.540;2023-04-02T10:54:27;4.07;;;1.88;;
49366;SDS011;35245;52.026;8.540;2023-04-02T10:57:03;4.65;;;1.58;;
49366;SDS011;35245;52.026;8.540;2023-04-02T10:59:33;3.28;;;1.20;;
49366;SDS011;35245;52.026;8.540;2023-04-02T11:02:01;4.70;;;1.92;;
49366;SDS011;35245;52.026;8.540;2023-04-02T11:04:33;4.45;;;1.75;;
49366;SDS011;35245;52.026;8.540;2023-04-02T11:07:05;6.05;;;1.50;;
49366;SDS011;35245;52.026;8.540;2023-04-02T11:09:36;4.03;;;1.80;;
49366;SDS011;35245;52.026;8.540;2023-04-02T11:14:33;5.80;;;1.75;;
49366;SDS011;35245;52.026;8.540;2023-04-02T11:17:00;5.18;;;1.63;;
49366;SDS011;35245;52.026;8.540;2023-04-02T11:19:28;3.85;;;1.50;;
49366;SDS011;35245;52.026;8.540;2023-04-02T11:21:56;5.72;;;1.45;;
49366;SDS011;35245;52.026;8.540;2023-04-02T11:24:25;4.13;;;1.63;;
49366;SDS011;35245;52.026;8.540;2023-04-02T11:27:02;6.65;;;1.70;;
49366;SDS011;35245;52.026;8.540;2023-04-02T11:29:32;3.38;;;1.40;;
49366;SDS011;35245;52.026;8.540;2023-04-02T11:32:13;5.30;;;1.90;;
49366;SDS011;35245;52.026;8.540;2023-04-02T11:35:01;5.15;;;1.35;;
49366;SDS011;35245;52.026;8.540;2023-04-02T11:37:50;5.68;;;1.52;;
49366;SDS011;35245;52.026;8.540;2023-04-02T11:46:39;4.20;;;1.50;;
49366;SDS011;35245;52.026;8.540;2023-04-02T11:51:58;5.75;;;1.52;;
49366;SDS011;35245;52.026;8.540;2023-04-02T11:54:27;3.42;;;1.35;;
49366;SDS011;35245;52.026;8.540;2023-04-02T11:57:03;2.78;;;1.38;;
49366;SDS011;35245;52.026;8.540;2023-04-02T11:59:38;3.70;;;1.30;;
49366;SDS011;35245;52.026;8.540;2023-04-02T12:02:11;2.63;;;1.38;;
49366;SDS011;35245;52.026;8.540;2023-04-02T12:07:52;5.43;;;1.77;;
49366;SDS011;35245;52.026;8.540;2023-04-02T12:10:31;3.50;;;1.80;;
49366;SDS011;35245;52.026;8.540;2023-04-02T12:12:59;3.90;;;1.52;;
49366;SDS011;35245;52.026;8.540;2023-04-02T12:15:31;3.25;;;1.42;;
49366;SDS011;35245;52.026;8.540;2023-04-02T12:18:09;4.65;;;1.67;;
49366;SDS011;35245;52.026;8.540;2023-04-02T12:20:38;4.40;;;1.40;;
49366;SDS011;35245;52.026;8.540;2023-04-02T12:23:11;3.63;;;1.42;;
49366;SDS011;35245;52.026;8.540;2023-04-02T12:25:42;5.20;;;1.63;;
49366;SDS011;35245;52.026;8.540;2023-04-02T12:28:14;5.97;;;1.75;;
49366;SDS011;35245;52.026;8.540;2023-04-02T12:30:45;2.67;;;1.35;;
49366;SDS011;35245;52.026;8.540;2023-04-02T12:33:14;4.57;;;1.67;;
49366;SDS011;35245;52.026;8.540;2023-04-02T12:35:42;3.85;;;1.67;;
49366;SDS011;35245;52.026;8.540;2023-04-02T12:38:20;3.58;;;1.60;;
49366;SDS011;35245;52.026;8.540;2023-04-02T12:40:51;5.28;;;2.35;;
49366;SDS011;35245;52.026;8.540;2023-04-02T12:43:22;3.72;;;1.88;;
49366;SDS011;35245;52.026;8.540;2023-04-02T12:45:50;3.22;;;1.27;;
49366;SDS011;35245;52.026;8.540;2023-04-02T12:48:19;2.28;;;1.10;;
49366;SDS011;35245;52.026;8.540;2023-04-02T12:50:46;2.72;;;1.20;;
49366;SDS011;35245;52.026;8.540;2023-04-02T12:53:17;4.10;;;1.40;;
49366;SDS011;35245;52.026;8.540;2023-04-02T12:55:46;2.72;;;1.38;;
49366;SDS011;35245;52.026;8.540;2023-04-02T12:58:24;3.25;;;1.52;;
49366;SDS011;35245;52.026;8.540;2023-04-02T13:01:07;3.92;;;1.73;;
49366;SDS011;35245;52.026;8.540;2023-04-02T13:03:37;3.20;;;1.52;;
49366;SDS011;35245;52.026;8.540;2023-04-02T13:06:10;4.72;;;1.48;;
49366;SDS011;35245;52.026;8.540;2023-04-02T13:08:48;4.57;;;1.42;;
49366;SDS011;35245;52.026;8.540;2023-04-02T13:11:15;2.67;;;1.10;;
49366;SDS011;35245;52.026;8.540;2023-04-02T13:13:43;3.83;;;1.50;;
49366;SDS011;35245;52.026;8.540;2023-04-02T13:16:24;3.10;;;1.20;;
49366;SDS011;35245;52.026;8.540;2023-04-02T13:21:43;3.00;;;1.23;;
49366;SDS011;35245;52.026;8.540;2023-04-02T13:24:15;3.00;;;1.10;;
49366;SDS011;35245;52.026;8.540;2023-04-02T13:26:42;4.63;;;1.40;;
49366;SDS011;35245;52.026;8.540;2023-04-02T13:29:16;2.67;;;1.23;;
49366;SDS011;35245;52.026;8.540;2023-04-02T13:31:46;3.17;;;1.38;;
49366;SDS011;35245;52.026;8.540;2023-04-02T13:34:14;4.00;;;1.42;;
49366;SDS011;35245;52.026;8.540;2023-04-02T13:36:42;3.97;;;1.35;;
49366;SDS011;35245;52.026;8.540;2023-04-02T13:39:09;4.35;;;1.42;;
49366;SDS011;35245;52.026;8.540;2023-04-02T13:41:37;2.33;;;1.17;;
49366;SDS011;35245;52.026;8.540;2023-04-02T13:44:06;3.00;;;1.38;;
49366;SDS011;35245;52.026;8.540;2023-04-02T13:46:36;4.13;;;2.00;;
49366;SDS011;35245;52.026;8.540;2023-04-02T13:49:03;3.00;;;1.08;;
49366;SDS011;35245;52.026;8.540;2023-04-02T13:51:33;3.25;;;1.48;;
49366;SDS011;35245;52.026;8.540;2023-04-02T13:54:02;3.17;;;1.90;;
49366;SDS011;35245;52.026;8.540;2023-04-02T13:56:32;3.28;;;1.15;;
49366;SDS011;35245;52.026;8.540;2023-04-02T13:59:00;2.55;;;1.27;;
49366;SDS011;35245;52.026;8.540;2023-04-02T14:01:27;2.80;;;1.45;;
49366;SDS011;35245;52.026;8.540;2023-04-02T14:03:54;4.35;;;1.63;;
49366;SDS011;35245;52.026;8.540;2023-04-02T14:06:23;3.40;;;1.30;;
49366;SDS011;35245;52.026;8.540;2023-04-02T14:08:58;2.45;;;1.23;;
49366;SDS011;35245;52.026;8.540;2023-04-02T14:11:32;2.67;;;1.13;;
49366;SDS011;35245;52.026;8.540;2023-04-02T14:14:13;4.40;;;1.33;;
49366;SDS011;35245;52.026;8.540;2023-04-02T14:16:50;1.98;;;1.05;;
49366;SDS011;35245;52.026;8.540;2023-04-02T14:19:29;3.40;;;1.20;;
49366;SDS011;35245;52.026;8.540;2023-04-02T14:22:05;2.60;;;1.40;;
49366;SDS011;35245;52.026;8.540;2023-04-02T14:24:42;3.90;;;1.50;;
49366;SDS011;35245;52.026;8.540;2023-04-02T14:27:14;3.08;;;1.27;;
49366;SDS011;35245;52.026;8.540;2023-04-02T14:29:46;3.83;;;1.77;;
49366;SDS011;35245;52.026;8.540;2023-04-02T14:32:22;2.05;;;1.55;;
49366;SDS011;35245;52.026;8.540;2023-04-02T14:34:52;4.20;;;1.40;;
49366;SDS011;35245;52.026;8.540;2023-04-02T14:37:26;4.05;;;1.73;;
49366;SDS011;35245;52.026;8.540;2023-04-02T14:40:01;2.05;;;1.00;;
49366;SDS011;35245;52.026;8.540;2023-04-02T14:42:34;4.40;;;1.55;;
49366;SDS011;35245;52.026;8.540;2023-04-02T14:45:04;4.28;;;1.30;;
49366;SDS011;35245;52.026;8.540;2023-04-02T14:47:36;3.10;;;1.42;;
49366;SDS011;35245;52.026;8.540;2023-04-02T14:50:09;2.58;;;1.25;;
49366;SDS011;35245;52.026;8.540;2023-04-02T14:52:38;5.55;;;1.48;;
49366;SDS011;35245;52.026;8.540;2023-04-02T14:55:10;4.28;;;1.40;;
49366;SDS011;35245;52.026;8.540;2023-04-02T14:57:43;2.90;;;1.25;;
49366;SDS011;35245;52.026;8.540;2023-04-02T15:00:19;3.05;;;1.38;;
49366;SDS011;35245;52.026;8.540;2023-04-02T15:02:55;4.35;;;2.10;;
49366;SDS011;35245;52.026;8.540;2023-04-02T15:05:25;2.05;;;1.20;;
49366;SDS011;35245;52.026;8.540;2023-04-02T15:07:55;3.15;;;1.45;;
49366;SDS011;35245;52.026;8.540;2023-04-02T15:10:27;3.38;;;1.70;;
49366;SDS011;35245;52.026;8.540;2023-04-02T15:12:55;6.47;;;4.63;;
49366;SDS011;35245;52.026;8.540;2023-04-02T15:15:27;1.83;;;1.23;;
49366;SDS011;35245;52.026;8.540;2023-04-02T15:17:59;4.43;;;1.92;;
49366;SDS011;35245;52.026;8.540;2023-04-02T15:20:28;2.90;;;1.60;;
49366;SDS011;35245;52.026;8.540;2023-04-02T15:23:04;3.38;;;1.83;;
49366;SDS011;35245;52.026;8.540;2023-04-02T15:25:37;3.60;;;1.80;;
49366;SDS011;35245;52.026;8.540;2023-04-02T15:28:08;2.83;;;1.33;;
49366;SDS011;35245;52.026;8.540;2023-04-02T15:30:40;3.95;;;1.27;;
49366;SDS011;35245;52.026;8.540;2023-04-02T15:36:09;2.85;;;1.13;;